sensor_id;sensor_type;location;lat;lon;timestamp;pressure;altitude;pressure_sealevel;temperature;humidity
6435;BME280;3250;42.694;23.278;2023-06-26T00:01:55;94604.00;;;21.05;90.67
6435;BME280;3250;42.694;23.278;2023-06-26T00:04:21;94652.19;;;21.39;90.39
6435;BME280;3250;42.694;23.278;2023-06-26T00:06:46;94595.69;;;21.06;90.15
6435;BME280;3250;42.694;23.278;2023-06-26T00:09:11;94628.16;;;21.29;90.19
6435;BME280;3250;42.694;23.278;2023-06-26T00:11:37;94650.81;;;21.41;89.84
6435;BME280;3250;42.694;23.278;2023-06-26T00:14:02;94647.06;;;21.42;90.18
6435;BME280;3250;42.694;23.278;2023-06-26T00:16:28;94630.56;;;21.30;90.27
6435;BME280;3250;42.694;23.278;2023-06-26T00:18:53;94644.38;;;21.42;89.53
6435;BME280;3250;42.694;23.278;2023-06-26T00:21:19;94594.09;;;21.05;90.36
6435;BME280;3250;42.694;23.278;2023-06-26T00:23:45;94647.06;;;21.42;90.05
6435;BME280;3250;42.694;23.278;2023-06-26T00:26:11;94653.31;;;21.33;90.46
6435;BME280;3250;42.694;23.278;2023-06-26T00:28:36;94602.66;;;21.07;89.83
6435;BME280;3250;42.694;23.278;2023-06-26T00:31:02;94639.41;;;21.31;89.54
6435;BME280;3250;42.694;23.278;2023-06-26T00:33:27;94641.53;;;21.34;89.69
6435;BME280;3250;42.694;23.278;2023-06-26T00:35:53;94593.59;;;21.03;90.30
6435;BME280;3250;42.694;23.278;2023-06-26T00:38:18;94640.19;;;21.31;90.26
6435;BME280;3250;42.694;23.278;2023-06-26T00:40:43;94640.44;;;21.35;89.66
6435;BME280;3250;42.694;23.278;2023-06-26T00:43:09;94585.88;;;20.97;90.36
6435;BME280;3250;42.694;23.278;2023-06-26T00:45:34;94635.00;;;21.11;90.80
6435;BME280;3250;42.694;23.278;2023-06-26T00:48:00;94633.41;;;20.81;91.50
6435;BME280;3250;42.694;23.278;2023-06-26T00:50:27;94632.78;;;20.89;92.21
6435;BME280;3250;42.694;23.278;2023-06-26T00:52:53;94598.13;;;20.74;91.84
6435;BME280;3250;42.694;23.278;2023-06-26T00:55:19;94605.97;;;20.94;91.33
6435;BME280;3250;42.694;23.278;2023-06-26T00:57:45;94627.22;;;21.15;90.49
6435;BME280;3250;42.694;23.278;2023-06-26T01:00:11;94625.63;;;21.19;90.77
6435;BME280;3250;42.694;23.278;2023-06-26T01:02:38;94625.03;;;21.22;90.60
6435;BME280;3250;42.694;23.278;2023-06-26T01:05:04;94589.88;;;20.99;90.58
6435;BME280;3250;42.694;23.278;2023-06-26T01:07:32;94615.41;;;21.21;90.22
6435;BME280;3250;42.694;23.278;2023-06-26T01:10:05;94617.00;;;21.22;90.71
6435;BME280;3250;42.694;23.278;2023-06-26T01:12:32;94605.00;;;21.14;90.27
6435;BME280;3250;42.694;23.278;2023-06-26T01:14:59;94537.22;;;20.66;90.31
6435;BME280;3250;42.694;23.278;2023-06-26T01:17:26;94583.75;;;20.94;90.37
6435;BME280;3250;42.694;23.278;2023-06-26T01:19:53;94605.16;;;20.99;90.89
6435;BME280;3250;42.694;23.278;2023-06-26T01:28:13;94562.84;;;20.72;90.83
6435;BME280;3250;42.694;23.278;2023-06-26T01:30:42;94601.94;;;20.97;91.35
6435;BME280;3250;42.694;23.278;2023-06-26T01:33:09;94564.38;;;20.78;91.22
6435;BME280;3250;42.694;23.278;2023-06-26T01:35:35;94561.97;;;20.77;91.27
6435;BME280;3250;42.694;23.278;2023-06-26T01:38:17;94589.09;;;20.99;90.63
6435;BME280;3250;42.694;23.278;2023-06-26T01:40:43;94519.38;;;20.56;90.05
6435;BME280;3250;42.694;23.278;2023-06-26T01:46:00;94593.38;;;20.95;89.98
6435;BME280;3250;42.694;23.278;2023-06-26T01:48:32;94589.63;;;20.96;89.95
6435;BME280;3250;42.694;23.278;2023-06-26T01:50:59;94556.22;;;20.64;89.64
6435;BME280;3250;42.694;23.278;2023-06-26T01:53:29;94587.56;;;20.88;90.02
6435;BME280;3250;42.694;23.278;2023-06-26T01:56:08;94566.84;;;20.69;90.70
6435;BME280;3250;42.694;23.278;2023-06-26T01:58:43;94576.47;;;20.76;90.41
6435;BME280;3250;42.694;23.278;2023-06-26T02:01:09;94550.34;;;20.62;90.27
6435;BME280;3250;42.694;23.278;2023-06-26T02:03:34;94572.75;;;20.71;89.57
6435;BME280;3250;42.694;23.278;2023-06-26T02:06:00;94556.03;;;20.51;90.57
6435;BME280;3250;42.694;23.278;2023-06-26T02:08:25;94538.69;;;20.48;90.12
6435;BME280;3250;42.694;23.278;2023-06-26T02:10:50;94565.13;;;20.55;90.49
6435;BME280;3250;42.694;23.278;2023-06-26T02:13:16;94527.28;;;20.32;89.41
6435;BME280;3250;42.694;23.278;2023-06-26T02:19:20;94543.78;;;20.45;90.34
6435;BME280;3250;42.694;23.278;2023-06-26T02:21:48;94552.69;;;20.40;90.20
6435;BME280;3250;42.694;23.278;2023-06-26T02:24:14;94569.19;;;20.47;90.03
6435;BME280;3250;42.694;23.278;2023-06-26T02:26:39;94575.84;;;20.50;90.27
6435;BME280;3250;42.694;23.278;2023-06-26T02:29:05;94579.97;;;20.37;90.78
6435;BME280;3250;42.694;23.278;2023-06-26T02:31:30;94582.28;;;20.49;90.67
6435;BME280;3250;42.694;23.278;2023-06-26T02:33:56;94584.38;;;20.57;90.27
6435;BME280;3250;42.694;23.278;2023-06-26T02:36:21;94579.84;;;20.52;90.82
6435;BME280;3250;42.694;23.278;2023-06-26T02:38:46;94554.81;;;20.33;90.15
6435;BME280;3250;42.694;23.278;2023-06-26T02:41:12;94559.66;;;20.31;90.01
6435;BME280;3250;42.694;23.278;2023-06-26T02:43:37;94557.59;;;20.23;90.98
6435;BME280;3250;42.694;23.278;2023-06-26T02:46:02;94557.31;;;20.19;90.81
6435;BME280;3250;42.694;23.278;2023-06-26T02:48:28;94564.75;;;20.27;90.62
6435;BME280;3250;42.694;23.278;2023-06-26T02:50:53;94585.88;;;20.29;91.74
6435;BME280;3250;42.694;23.278;2023-06-26T02:53:18;94576.78;;;20.25;91.91
6435;BME280;3250;42.694;23.278;2023-06-26T02:55:44;94552.53;;;20.16;91.25
6435;BME280;3250;42.694;23.278;2023-06-26T02:58:09;94591.69;;;20.41;90.89
6435;BME280;3250;42.694;23.278;2023-06-26T03:00:35;94582.34;;;20.39;90.44
6435;BME280;3250;42.694;23.278;2023-06-26T03:03:00;94591.50;;;20.27;91.03
6435;BME280;3250;42.694;23.278;2023-06-26T03:05:26;94584.38;;;20.13;91.93
6435;BME280;3250;42.694;23.278;2023-06-26T03:07:51;94575.81;;;20.11;91.74
6435;BME280;3250;42.694;23.278;2023-06-26T03:10:16;94551.81;;;20.01;90.79
6435;BME280;3250;42.694;23.278;2023-06-26T03:12:42;94543.59;;;19.97;90.71
6435;BME280;3250;42.694;23.278;2023-06-26T03:15:07;94560.13;;;19.99;91.02
6435;BME280;3250;42.694;23.278;2023-06-26T03:17:33;94553.44;;;20.02;90.72
6435;BME280;3250;42.694;23.278;2023-06-26T03:19:58;94590.22;;;20.20;90.77
6435;BME280;3250;42.694;23.278;2023-06-26T03:22:24;94545.47;;;19.91;91.36
6435;BME280;3250;42.694;23.278;2023-06-26T03:24:49;94590.53;;;20.13;91.29
6435;BME280;3250;42.694;23.278;2023-06-26T03:27:14;94578.16;;;19.78;92.14
6435;BME280;3250;42.694;23.278;2023-06-26T03:29:40;94590.44;;;19.74;93.08
6435;BME280;3250;42.694;23.278;2023-06-26T03:32:06;94593.91;;;19.75;93.75
6435;BME280;3250;42.694;23.278;2023-06-26T03:34:32;94578.19;;;19.68;94.19
6435;BME280;3250;42.694;23.278;2023-06-26T03:36:58;94548.59;;;19.59;93.36
6435;BME280;3250;42.694;23.278;2023-06-26T03:39:23;94549.44;;;19.45;93.76
6435;BME280;3250;42.694;23.278;2023-06-26T03:41:48;94573.66;;;19.69;93.54
6435;BME280;3250;42.694;23.278;2023-06-26T03:44:14;94596.31;;;19.76;93.98
6435;BME280;3250;42.694;23.278;2023-06-26T03:46:40;94538.47;;;19.51;93.64
6435;BME280;3250;42.694;23.278;2023-06-26T03:49:05;94599.97;;;19.95;93.70
6435;BME280;3250;42.694;23.278;2023-06-26T03:51:31;94566.84;;;19.91;93.16
6435;BME280;3250;42.694;23.278;2023-06-26T03:53:58;94554.88;;;19.84;92.66
6435;BME280;3250;42.694;23.278;2023-06-26T03:56:23;94600.09;;;20.19;92.63
6435;BME280;3250;42.694;23.278;2023-06-26T03:58:48;94586.47;;;20.16;93.09
6435;BME280;3250;42.694;23.278;2023-06-26T04:01:14;94568.88;;;20.15;92.21
6435;BME280;3250;42.694;23.278;2023-06-26T04:03:39;94539.25;;;20.06;91.70
6435;BME280;3250;42.694;23.278;2023-06-26T04:06:05;94523.22;;;20.06;91.83
6435;BME280;3250;42.694;23.278;2023-06-26T04:08:30;94589.25;;;20.45;90.67
6435;BME280;3250;42.694;23.278;2023-06-26T04:10:55;94562.03;;;20.38;90.94
6435;BME280;3250;42.694;23.278;2023-06-26T04:13:22;94541.22;;;20.29;90.83
6435;BME280;3250;42.694;23.278;2023-06-26T04:15:48;94592.59;;;20.65;90.77
6435;BME280;3250;42.694;23.278;2023-06-26T04:18:13;94532.31;;;20.44;90.54
6435;BME280;3250;42.694;23.278;2023-06-26T04:20:41;94531.63;;;20.62;89.92
6435;BME280;3250;42.694;23.278;2023-06-26T04:23:25;94599.91;;;21.18;88.89
6435;BME280;3250;42.694;23.278;2023-06-26T04:26:23;94607.00;;;21.56;88.02
6435;BME280;3250;42.694;23.278;2023-06-26T04:28:49;94593.72;;;21.70;86.53
6435;BME280;3250;42.694;23.278;2023-06-26T04:31:14;94608.41;;;21.96;85.61
6435;BME280;3250;42.694;23.278;2023-06-26T04:33:40;94608.38;;;22.20;85.07
6435;BME280;3250;42.694;23.278;2023-06-26T04:36:05;94613.47;;;22.22;83.16
6435;BME280;3250;42.694;23.278;2023-06-26T04:38:32;94567.03;;;21.60;83.16
6435;BME280;3250;42.694;23.278;2023-06-26T04:40:58;94576.53;;;21.71;85.02
6435;BME280;3250;42.694;23.278;2023-06-26T04:43:23;94614.94;;;22.09;83.87
6435;BME280;3250;42.694;23.278;2023-06-26T04:45:49;94605.97;;;22.37;84.63
6435;BME280;3250;42.694;23.278;2023-06-26T04:48:14;94617.94;;;22.82;83.09
6435;BME280;3250;42.694;23.278;2023-06-26T04:50:40;94581.97;;;22.46;81.45
6435;BME280;3250;42.694;23.278;2023-06-26T04:53:05;94583.91;;;22.78;81.46
6435;BME280;3250;42.694;23.278;2023-06-26T04:55:31;94616.97;;;23.24;79.93
6435;BME280;3250;42.694;23.278;2023-06-26T04:57:56;94545.69;;;23.00;79.04
6435;BME280;3250;42.694;23.278;2023-06-26T05:00:21;94614.47;;;23.60;78.80
6435;BME280;3250;42.694;23.278;2023-06-26T05:02:48;94586.16;;;23.63;77.61
6435;BME280;3250;42.694;23.278;2023-06-26T05:05:13;94555.22;;;23.52;77.18
6435;BME280;3250;42.694;23.278;2023-06-26T05:07:40;94571.75;;;23.59;76.16
6435;BME280;3250;42.694;23.278;2023-06-26T05:10:06;94610.66;;;23.89;76.90
6435;BME280;3250;42.694;23.278;2023-06-26T05:12:33;94595.84;;;23.78;76.46
6435;BME280;3250;42.694;23.278;2023-06-26T05:14:58;94611.31;;;24.08;76.54
6435;BME280;3250;42.694;23.278;2023-06-26T05:17:23;94597.88;;;24.22;75.62
6435;BME280;3250;42.694;23.278;2023-06-26T05:19:49;94641.34;;;24.65;73.18
6435;BME280;3250;42.694;23.278;2023-06-26T05:22:15;94574.94;;;24.38;74.65
6435;BME280;3250;42.694;23.278;2023-06-26T05:24:46;94638.97;;;24.86;73.76
6435;BME280;3250;42.694;23.278;2023-06-26T05:27:12;94651.50;;;24.68;72.47
6435;BME280;3250;42.694;23.278;2023-06-26T05:29:44;94605.53;;;24.15;72.61
6435;BME280;3250;42.694;23.278;2023-06-26T05:32:10;94627.88;;;24.01;74.06
6435;BME280;3250;42.694;23.278;2023-06-26T05:34:37;94595.44;;;23.57;75.33
6435;BME280;3250;42.694;23.278;2023-06-26T05:37:03;94634.34;;;23.59;75.81
6435;BME280;3250;42.694;23.278;2023-06-26T05:39:30;94632.22;;;23.43;77.10
6435;BME280;3250;42.694;23.278;2023-06-26T05:41:55;94595.13;;;22.99;76.64
6435;BME280;3250;42.694;23.278;2023-06-26T05:44:21;94653.97;;;23.27;78.04
6435;BME280;3250;42.694;23.278;2023-06-26T05:46:47;94631.44;;;23.10;79.26
6435;BME280;3250;42.694;23.278;2023-06-26T05:49:12;94647.78;;;23.27;78.94
6435;BME280;3250;42.694;23.278;2023-06-26T05:51:38;94593.59;;;22.92;78.55
6435;BME280;3250;42.694;23.278;2023-06-26T05:54:03;94571.19;;;22.83;78.40
6435;BME280;3250;42.694;23.278;2023-06-26T05:56:30;94607.59;;;23.08;77.25
6435;BME280;3250;42.694;23.278;2023-06-26T05:58:56;94588.97;;;23.12;77.60
6435;BME280;3250;42.694;23.278;2023-06-26T06:01:22;94646.00;;;23.68;78.08
6435;BME280;3250;42.694;23.278;2023-06-26T06:03:48;94628.00;;;23.83;76.82
6435;BME280;3250;42.694;23.278;2023-06-26T06:06:14;94622.88;;;24.08;75.95
6435;BME280;3250;42.694;23.278;2023-06-26T06:08:41;94640.03;;;24.26;74.62
6435;BME280;3250;42.694;23.278;2023-06-26T06:11:06;94630.75;;;24.19;75.29
6435;BME280;3250;42.694;23.278;2023-06-26T06:13:32;94663.56;;;24.57;77.04
6435;BME280;3250;42.694;23.278;2023-06-26T06:15:57;94628.94;;;24.41;74.24
6435;BME280;3250;42.694;23.278;2023-06-26T06:18:23;94575.31;;;24.31;74.37
6435;BME280;3250;42.694;23.278;2023-06-26T06:20:48;94610.56;;;24.79;72.86
6435;BME280;3250;42.694;23.278;2023-06-26T06:23:13;94631.47;;;24.96;72.78
6435;BME280;3250;42.694;23.278;2023-06-26T06:25:39;94617.13;;;25.09;72.94
6435;BME280;3250;42.694;23.278;2023-06-26T06:28:05;94643.38;;;25.26;73.43
6435;BME280;3250;42.694;23.278;2023-06-26T06:30:30;94607.63;;;25.12;72.18
6435;BME280;3250;42.694;23.278;2023-06-26T06:32:56;94655.25;;;25.47;72.75
6435;BME280;3250;42.694;23.278;2023-06-26T06:35:21;94638.25;;;25.69;72.18
6435;BME280;3250;42.694;23.278;2023-06-26T06:37:47;94619.16;;;25.97;69.86
6435;BME280;3250;42.694;23.278;2023-06-26T06:40:12;94663.16;;;26.71;69.83
6435;BME280;3250;42.694;23.278;2023-06-26T06:42:38;94610.88;;;26.76;66.66
6435;BME280;3250;42.694;23.278;2023-06-26T06:45:04;94653.75;;;27.37;64.95
6435;BME280;3250;42.694;23.278;2023-06-26T06:47:31;94631.59;;;27.61;65.23
6435;BME280;3250;42.694;23.278;2023-06-26T06:49:57;94611.72;;;27.66;62.10
6435;BME280;3250;42.694;23.278;2023-06-26T06:52:22;94613.69;;;27.86;62.76
6435;BME280;3250;42.694;23.278;2023-06-26T06:54:55;94653.13;;;28.34;63.89
6435;BME280;3250;42.694;23.278;2023-06-26T06:57:21;94650.78;;;28.53;61.38
6435;BME280;3250;42.694;23.278;2023-06-26T06:59:47;94643.25;;;28.59;59.97
6435;BME280;3250;42.694;23.278;2023-06-26T07:02:14;94601.00;;;28.37;62.14
6435;BME280;3250;42.694;23.278;2023-06-26T07:04:39;94586.25;;;28.46;61.77
6435;BME280;3250;42.694;23.278;2023-06-26T07:07:05;94563.16;;;28.49;59.69
6435;BME280;3250;42.694;23.278;2023-06-26T07:09:30;94638.69;;;29.13;60.53
6435;BME280;3250;42.694;23.278;2023-06-26T07:11:55;94624.97;;;29.30;59.95
6435;BME280;3250;42.694;23.278;2023-06-26T07:14:21;94630.84;;;29.65;57.01
6435;BME280;3250;42.694;23.278;2023-06-26T07:16:46;94638.81;;;29.94;56.71
6435;BME280;3250;42.694;23.278;2023-06-26T07:19:12;94635.22;;;30.15;57.09
6435;BME280;3250;42.694;23.278;2023-06-26T07:21:37;94647.31;;;30.29;53.35
6435;BME280;3250;42.694;23.278;2023-06-26T07:24:03;94613.38;;;30.23;55.05
6435;BME280;3250;42.694;23.278;2023-06-26T07:26:28;94640.75;;;30.30;54.53
6435;BME280;3250;42.694;23.278;2023-06-26T07:28:53;94593.47;;;29.95;53.57
6435;BME280;3250;42.694;23.278;2023-06-26T07:31:21;94598.75;;;29.79;54.17
6435;BME280;3250;42.694;23.278;2023-06-26T07:33:47;94595.66;;;29.56;54.34
6435;BME280;3250;42.694;23.278;2023-06-26T07:36:12;94574.06;;;29.48;55.68
6435;BME280;3250;42.694;23.278;2023-06-26T07:38:38;94574.16;;;29.39;54.64
6435;BME280;3250;42.694;23.278;2023-06-26T07:41:03;94585.81;;;29.52;56.51
6435;BME280;3250;42.694;23.278;2023-06-26T07:43:28;94574.97;;;29.19;55.29
6435;BME280;3250;42.694;23.278;2023-06-26T07:45:54;94634.56;;;29.27;54.92
6435;BME280;3250;42.694;23.278;2023-06-26T07:48:19;94598.50;;;28.94;55.30
6435;BME280;3250;42.694;23.278;2023-06-26T07:50:45;94606.84;;;28.89;55.68
6435;BME280;3250;42.694;23.278;2023-06-26T07:53:10;94568.25;;;28.50;56.46
6435;BME280;3250;42.694;23.278;2023-06-26T07:55:35;94635.44;;;28.57;54.36
6435;BME280;3250;42.694;23.278;2023-06-26T07:58:01;94590.06;;;27.95;59.38
6435;BME280;3250;42.694;23.278;2023-06-26T08:00:26;94572.19;;;28.03;58.71
6435;BME280;3250;42.694;23.278;2023-06-26T08:02:52;94587.19;;;28.30;57.16
6435;BME280;3250;42.694;23.278;2023-06-26T08:05:17;94583.63;;;28.08;57.82
6435;BME280;3250;42.694;23.278;2023-06-26T08:07:44;94626.94;;;28.17;59.48
6435;BME280;3250;42.694;23.278;2023-06-26T08:10:09;94573.56;;;27.88;60.68
6435;BME280;3250;42.694;23.278;2023-06-26T08:12:35;94580.78;;;28.05;59.19
6435;BME280;3250;42.694;23.278;2023-06-26T08:15:02;94618.50;;;28.19;59.94
6435;BME280;3250;42.694;23.278;2023-06-26T08:17:28;94611.19;;;28.10;57.41
6435;BME280;3250;42.694;23.278;2023-06-26T08:19:53;94590.69;;;27.63;58.53
6435;BME280;3250;42.694;23.278;2023-06-26T08:22:19;94609.66;;;27.46;60.41
6435;BME280;3250;42.694;23.278;2023-06-26T08:24:44;94621.28;;;27.55;63.42
6435;BME280;3250;42.694;23.278;2023-06-26T08:27:10;94631.75;;;27.65;64.96
6435;BME280;3250;42.694;23.278;2023-06-26T08:29:35;94597.88;;;27.67;63.16
6435;BME280;3250;42.694;23.278;2023-06-26T08:32:01;94604.91;;;27.89;59.82
6435;BME280;3250;42.694;23.278;2023-06-26T08:34:27;94615.19;;;28.04;58.32
6435;BME280;3250;42.694;23.278;2023-06-26T08:36:52;94608.53;;;28.02;61.66
6435;BME280;3250;42.694;23.278;2023-06-26T08:39:18;94560.91;;;27.71;57.67
6435;BME280;3250;42.694;23.278;2023-06-26T08:41:44;94627.13;;;28.03;57.88
6435;BME280;3250;42.694;23.278;2023-06-26T08:44:10;94577.53;;;27.91;61.09
6435;BME280;3250;42.694;23.278;2023-06-26T08:46:36;94595.84;;;28.23;60.34
6435;BME280;3250;42.694;23.278;2023-06-26T08:49:14;94617.19;;;28.66;59.19
6435;BME280;3250;42.694;23.278;2023-06-26T08:51:51;94632.56;;;28.83;57.78
6435;BME280;3250;42.694;23.278;2023-06-26T08:54:22;94594.53;;;28.50;58.98
6435;BME280;3250;42.694;23.278;2023-06-26T08:56:54;94634.38;;;28.49;54.88
6435;BME280;3250;42.694;23.278;2023-06-26T08:59:20;94639.97;;;28.15;55.98
6435;BME280;3250;42.694;23.278;2023-06-26T09:01:46;94624.09;;;28.05;59.83
6435;BME280;3250;42.694;23.278;2023-06-26T09:04:12;94594.22;;;27.63;56.83
6435;BME280;3250;42.694;23.278;2023-06-26T09:06:38;94601.56;;;27.46;59.37
6435;BME280;3250;42.694;23.278;2023-06-26T09:09:04;94625.31;;;27.31;60.08
6435;BME280;3250;42.694;23.278;2023-06-26T09:11:30;94569.53;;;26.75;61.09
6435;BME280;3250;42.694;23.278;2023-06-26T09:13:55;94623.91;;;27.08;63.62
6435;BME280;3250;42.694;23.278;2023-06-26T09:16:26;94573.53;;;26.78;63.57
6435;BME280;3250;42.694;23.278;2023-06-26T09:18:52;94580.84;;;27.03;63.29
6435;BME280;3250;42.694;23.278;2023-06-26T09:21:18;94580.78;;;27.20;62.41
6435;BME280;3250;42.694;23.278;2023-06-26T09:23:44;94613.94;;;27.64;62.90
6435;BME280;3250;42.694;23.278;2023-06-26T09:26:09;94595.88;;;27.76;60.57
6435;BME280;3250;42.694;23.278;2023-06-26T09:28:36;94581.25;;;27.77;61.32
6435;BME280;3250;42.694;23.278;2023-06-26T09:31:05;94606.09;;;28.09;59.40
6435;BME280;3250;42.694;23.278;2023-06-26T09:33:35;94591.09;;;27.82;57.25
6435;BME280;3250;42.694;23.278;2023-06-26T09:36:18;94558.59;;;27.44;57.37
6435;BME280;3250;42.694;23.278;2023-06-26T09:38:44;94571.22;;;27.31;58.57
6435;BME280;3250;42.694;23.278;2023-06-26T09:41:09;94604.09;;;27.42;61.92
6435;BME280;3250;42.694;23.278;2023-06-26T09:43:45;94613.16;;;27.46;59.95
6435;BME280;3250;42.694;23.278;2023-06-26T09:46:15;94609.50;;;27.42;61.03
6435;BME280;3250;42.694;23.278;2023-06-26T09:48:41;94612.38;;;27.46;60.93
6435;BME280;3250;42.694;23.278;2023-06-26T09:51:06;94616.38;;;27.39;56.87
6435;BME280;3250;42.694;23.278;2023-06-26T09:53:34;94579.06;;;27.07;60.41
6435;BME280;3250;42.694;23.278;2023-06-26T09:56:05;94611.56;;;27.45;61.07
6435;BME280;3250;42.694;23.278;2023-06-26T09:58:32;94599.66;;;27.46;59.50
6435;BME280;3250;42.694;23.278;2023-06-26T10:00:58;94591.72;;;27.41;55.95
6435;BME280;3250;42.694;23.278;2023-06-26T10:03:23;94622.69;;;27.61;57.44
6435;BME280;3250;42.694;23.278;2023-06-26T10:05:49;94588.22;;;27.40;58.83
6435;BME280;3250;42.694;23.278;2023-06-26T10:08:16;94604.19;;;27.71;58.56
6435;BME280;3250;42.694;23.278;2023-06-26T10:10:42;94593.38;;;27.71;58.94
6435;BME280;3250;42.694;23.278;2023-06-26T10:13:16;94616.34;;;27.95;56.12
6435;BME280;3250;42.694;23.278;2023-06-26T10:15:46;94583.50;;;27.75;58.38
6435;BME280;3250;42.694;23.278;2023-06-26T10:18:12;94612.72;;;27.91;57.10
6435;BME280;3250;42.694;23.278;2023-06-26T10:20:39;94566.56;;;27.58;56.73
6435;BME280;3250;42.694;23.278;2023-06-26T10:23:06;94587.53;;;27.52;54.79
6435;BME280;3250;42.694;23.278;2023-06-26T10:25:37;94607.59;;;27.42;56.55
6435;BME280;3250;42.694;23.278;2023-06-26T10:28:05;94602.09;;;27.22;58.45
6435;BME280;3250;42.694;23.278;2023-06-26T10:30:33;94614.34;;;27.19;57.33
6435;BME280;3250;42.694;23.278;2023-06-26T10:33:00;94581.00;;;26.81;56.25
6435;BME280;3250;42.694;23.278;2023-06-26T10:35:27;94569.72;;;26.53;56.87
6435;BME280;3250;42.694;23.278;2023-06-26T10:38:00;94611.03;;;26.71;57.06
6435;BME280;3250;42.694;23.278;2023-06-26T10:40:27;94571.47;;;26.40;56.16
6435;BME280;3250;42.694;23.278;2023-06-26T10:43:06;94615.97;;;26.60;58.31
6435;BME280;3250;42.694;23.278;2023-06-26T10:45:35;94598.78;;;26.56;59.80
6435;BME280;3250;42.694;23.278;2023-06-26T10:48:01;94601.97;;;26.66;59.66
6435;BME280;3250;42.694;23.278;2023-06-26T10:50:29;94609.59;;;26.73;58.19
6435;BME280;3250;42.694;23.278;2023-06-26T10:53:10;94612.94;;;26.70;59.22
6435;BME280;3250;42.694;23.278;2023-06-26T10:55:37;94560.19;;;26.38;58.08
6435;BME280;3250;42.694;23.278;2023-06-26T10:58:02;94600.06;;;26.58;59.76
6435;BME280;3250;42.694;23.278;2023-06-26T11:00:28;94595.63;;;26.62;61.12
6435;BME280;3250;42.694;23.278;2023-06-26T11:02:54;94601.81;;;26.72;57.81
6435;BME280;3250;42.694;23.278;2023-06-26T11:05:32;94599.75;;;26.60;56.05
6435;BME280;3250;42.694;23.278;2023-06-26T11:08:06;94603.06;;;26.57;57.92
6435;BME280;3250;42.694;23.278;2023-06-26T11:10:48;94561.31;;;26.37;57.60
6435;BME280;3250;42.694;23.278;2023-06-26T11:13:14;94600.38;;;26.57;58.45
6435;BME280;3250;42.694;23.278;2023-06-26T11:15:42;94598.00;;;26.55;58.61
6435;BME280;3250;42.694;23.278;2023-06-26T11:18:09;94576.38;;;26.38;57.71
6435;BME280;3250;42.694;23.278;2023-06-26T11:20:34;94606.72;;;26.44;56.12
6435;BME280;3250;42.694;23.278;2023-06-26T11:23:00;94594.03;;;26.36;56.68
6435;BME280;3250;42.694;23.278;2023-06-26T11:25:26;94594.97;;;26.31;57.51
6435;BME280;3250;42.694;23.278;2023-06-26T11:27:53;94590.78;;;26.25;57.88
6435;BME280;3250;42.694;23.278;2023-06-26T11:30:25;94586.50;;;26.15;57.68
6435;BME280;3250;42.694;23.278;2023-06-26T11:32:51;94591.88;;;26.15;58.89
6435;BME280;3250;42.694;23.278;2023-06-26T11:35:23;94568.06;;;26.00;57.95
6435;BME280;3250;42.694;23.278;2023-06-26T11:37:55;94582.66;;;26.08;59.06
6435;BME280;3250;42.694;23.278;2023-06-26T11:40:22;94584.75;;;26.11;60.41
6435;BME280;3250;42.694;23.278;2023-06-26T11:42:52;94580.16;;;26.11;60.13
6435;BME280;3250;42.694;23.278;2023-06-26T11:45:19;94570.91;;;26.04;58.66
6435;BME280;3250;42.694;23.278;2023-06-26T11:47:45;94584.09;;;26.14;56.68
6435;BME280;3250;42.694;23.278;2023-06-26T11:50:17;94557.75;;;26.11;60.18
6435;BME280;3250;42.694;23.278;2023-06-26T11:52:43;94559.56;;;26.33;61.51
6435;BME280;3250;42.694;23.278;2023-06-26T11:55:09;94586.72;;;26.62;57.46
6435;BME280;3250;42.694;23.278;2023-06-26T11:57:36;94580.34;;;26.49;58.71
6435;BME280;3250;42.694;23.278;2023-06-26T12:00:12;94581.16;;;26.58;57.71
6435;BME280;3250;42.694;23.278;2023-06-26T12:02:38;94570.34;;;26.50;56.97
6435;BME280;3250;42.694;23.278;2023-06-26T12:05:04;94567.66;;;26.58;58.79
6435;BME280;3250;42.694;23.278;2023-06-26T12:07:30;94562.72;;;26.69;60.22
6435;BME280;3250;42.694;23.278;2023-06-26T12:09:56;94563.19;;;26.80;58.02
6435;BME280;3250;42.694;23.278;2023-06-26T12:12:23;94570.03;;;26.94;58.05
6435;BME280;3250;42.694;23.278;2023-06-26T12:14:51;94547.16;;;26.92;57.02
6435;BME280;3250;42.694;23.278;2023-06-26T12:17:16;94534.25;;;26.89;55.97
6435;BME280;3250;42.694;23.278;2023-06-26T12:19:46;94550.50;;;26.97;57.85
6435;BME280;3250;42.694;23.278;2023-06-26T12:22:16;94539.34;;;26.99;58.05
6435;BME280;3250;42.694;23.278;2023-06-26T12:24:42;94576.31;;;27.33;59.11
6435;BME280;3250;42.694;23.278;2023-06-26T12:27:09;94575.03;;;27.30;56.97
6435;BME280;3250;42.694;23.278;2023-06-26T12:29:37;94575.88;;;27.22;56.86
6435;BME280;3250;42.694;23.278;2023-06-26T12:32:03;94578.94;;;27.03;55.90
6435;BME280;3250;42.694;23.278;2023-06-26T12:34:33;94566.69;;;26.80;57.87
6435;BME280;3250;42.694;23.278;2023-06-26T12:37:05;94582.25;;;26.75;58.81
6435;BME280;3250;42.694;23.278;2023-06-26T12:42:17;94586.56;;;26.50;58.43
6435;BME280;3250;42.694;23.278;2023-06-26T12:44:43;94578.94;;;26.43;58.95
6435;BME280;3250;42.694;23.278;2023-06-26T12:47:08;94575.59;;;26.29;60.23
6435;BME280;3250;42.694;23.278;2023-06-26T12:49:36;94563.00;;;26.24;60.72
6435;BME280;3250;42.694;23.278;2023-06-26T12:52:04;94571.31;;;26.28;60.30
6435;BME280;3250;42.694;23.278;2023-06-26T12:54:30;94541.72;;;26.06;60.65
6435;BME280;3250;42.694;23.278;2023-06-26T12:56:56;94571.09;;;26.24;60.78
6435;BME280;3250;42.694;23.278;2023-06-26T12:59:22;94576.72;;;26.28;60.81
6435;BME280;3250;42.694;23.278;2023-06-26T13:01:47;94510.56;;;25.82;59.81
6435;BME280;3250;42.694;23.278;2023-06-26T13:04:13;94577.91;;;26.22;60.41
6435;BME280;3250;42.694;23.278;2023-06-26T13:06:39;94571.09;;;26.16;60.32
6435;BME280;3250;42.694;23.278;2023-06-26T13:09:04;94573.78;;;26.16;62.65
6435;BME280;3250;42.694;23.278;2023-06-26T13:11:30;94515.78;;;25.79;63.06
6435;BME280;3250;42.694;23.278;2023-06-26T13:13:56;94562.81;;;26.04;62.04
6435;BME280;3250;42.694;23.278;2023-06-26T13:16:21;94518.19;;;25.80;62.40
6435;BME280;3250;42.694;23.278;2023-06-26T13:18:47;94544.56;;;25.92;61.40
6435;BME280;3250;42.694;23.278;2023-06-26T13:21:13;94575.84;;;26.02;61.82
6435;BME280;3250;42.694;23.278;2023-06-26T13:23:39;94571.06;;;25.99;61.59